Airfield :
LOGIN :

Register | Disclaimer

   EN    FR    IT 

 










Legend :    VFR   Marginal VFR   IFR   Intensive IFR   Very Intensive IFR
Visi :
Ceiling :
>= 8 km
>= 3000ft
5 to 8 km
1000 to 3000 ft
1500m to 5 km
500 to 1000 ft
800 to 1500m
200 to 500 ft
< 800m
< 200 ft
Symbols :   Thunderstorms  Fog  Heavy snow  Heavy precipitations  Wind > 20 kt
SIGMETs :     Misc.  Thunderstorms  Icing  Turbulence  Mountain Waves  Volcanic Ashes







- Airport Elevation : 37 ft


EHVL - Vlieland Heliport

CURRENT METAR :
  • 251155Z AUTO 29018KT 9999 FEW037/// 08/M01 Q1008 BLU

EXPIRED METARs :
  • 251125Z AUTO 30019KT 9999 FEW033 08/01 Q1008 BLU
  • 251055Z AUTO 30018KT 9999 FEW028 08/01 Q1007 BLU
  • 251025Z AUTO 31012KT 9999 BKN026 BKN029 BKN045 06/02 Q1007 BLU
  • 251013Z AUTO 31013KT 9999 FEW009/// SCT028/// BKN042/// 06/02 Q1007 BLU
  • 251003Z AUTO 32021KT 9999 -RA FEW009 SCT022 BKN040 05/01 Q1007 WHT
  • 250955Z AUTO 31017KT 9999 FEW020 SCT029 07/02 Q1007 BLU
  • 250925Z AUTO 33021KT 9999 FEW019 SCT039 BKN044 06/02 Q1007 BLU

Expired Forecast.
No reported NOTAMs for that airfield.



MET'MAP, your aeronautical weather chart ! - Copyright ORBIFLY December 2007 - Disclaimer

ORBIFLY MET'MAP TEAM :

Programming & Development : Alexandra Zaïnal
Concept & Development : Baudouin d'Aumeries
Co-Development & Prog : Marc-Olivier Méhu
Technical & hardware support : Manuel Goepfert

Contact : metmap@orbifly.com




SOURCES & CREDITS :

   NOAA